createdAt,value
2023-02-12T00:01:10.124Z,96297.19
2023-02-12T00:03:38.434Z,96300.22
2023-02-12T00:06:07.194Z,96309.94
2023-02-12T00:08:36.561Z,96310.63
2023-02-12T00:11:09.575Z,96310.84
2023-02-12T00:13:38.304Z,96317.16
2023-02-12T00:16:08.372Z,96318.53
2023-02-12T00:18:37.042Z,96322.03
2023-02-12T00:21:06.073Z,96310.84
2023-02-12T00:23:34.015Z,96311.31
2023-02-12T00:26:06.823Z,96310.72
2023-02-12T00:28:34.945Z,96318.63
2023-02-12T00:31:07.005Z,96312.13
2023-02-12T00:33:35.319Z,96311.81
2023-02-12T00:36:05.294Z,96301.38
2023-02-12T00:38:33.351Z,96306.06
2023-02-12T00:41:01.220Z,96290.13
2023-02-12T00:43:30.483Z,96298.09
2023-02-12T00:45:58.711Z,96297.50
2023-02-12T00:48:26.857Z,96294.94
2023-02-12T00:50:54.680Z,96268.84
2023-02-12T00:53:22.561Z,96276.28
2023-02-12T00:55:50.482Z,96270.28
2023-02-12T00:58:19.084Z,96279.44
2023-02-12T01:00:48.496Z,96268.28
2023-02-12T01:03:17.083Z,96263.19
2023-02-12T01:05:45.340Z,96267.13
2023-02-12T01:08:13.777Z,96268.13
2023-02-12T01:10:42.007Z,96272.38
2023-02-12T01:13:12.653Z,96271.34
2023-02-12T01:15:40.769Z,96278.25
2023-02-12T01:18:10.256Z,96272.22
2023-02-12T01:20:38.348Z,96277.28
2023-02-12T01:23:08.523Z,96275.16
2023-02-12T01:25:36.504Z,96277.91
2023-02-12T01:28:04.559Z,96273.06
2023-02-12T01:30:32.466Z,96278.47
2023-02-12T01:33:00.663Z,96272.72
2023-02-12T01:35:29.986Z,96280.19
2023-02-12T01:37:59.104Z,96269.97
2023-02-12T01:40:27.040Z,96255.53
2023-02-12T01:42:54.870Z,96266.22
2023-02-12T01:45:56.353Z,96252.41
2023-02-12T01:48:28.437Z,96255.53
2023-02-12T01:50:58.935Z,96240.09
2023-02-12T01:53:31.123Z,96243.47
2023-02-12T01:56:02.050Z,96245.31
2023-02-12T01:58:36.076Z,96241.53
2023-02-12T02:01:05.886Z,96242.75
2023-02-12T02:03:35.285Z,96253.69
2023-02-12T02:06:09.885Z,96249.03
2023-02-12T02:08:39.224Z,96256.16
2023-02-12T02:11:27.082Z,96225.63
2023-02-12T02:14:13.036Z,96253.69
2023-02-12T02:16:47.120Z,96246.19
2023-02-12T02:19:31.529Z,96246.75
2023-02-12T02:22:24.028Z,96238.63
2023-02-12T02:25:26.143Z,96235.13
2023-02-12T02:28:09.327Z,96231.09
2023-02-12T02:30:46.194Z,96230.84
2023-02-12T02:33:23.442Z,96238.78
2023-02-12T02:35:56.941Z,96239.34
2023-02-12T02:38:31.779Z,96236.63
2023-02-12T02:41:05.942Z,96157.25
2023-02-12T02:43:39.628Z,96224.63
2023-02-12T02:46:14.900Z,96231.53
2023-02-12T02:48:47.728Z,96245.75
2023-02-12T02:51:20.280Z,96241.81
2023-02-12T02:53:52.718Z,96240.06
2023-02-12T02:56:23.544Z,96221.63
2023-02-12T02:58:57.145Z,96246.59
2023-02-12T03:01:31.266Z,96251.25
2023-02-12T03:04:04.594Z,96254.31
2023-02-12T03:06:40.260Z,96253.16
2023-02-12T03:09:17.723Z,96259.38
2023-02-12T03:11:46.192Z,96264.66
2023-02-12T03:14:19.101Z,96234.53
2023-02-12T03:16:57.002Z,96248.50
2023-02-12T03:19:28.280Z,96251.75
2023-02-12T03:22:01.320Z,96239.38
2023-02-12T03:24:36.209Z,96234.41
2023-02-12T03:27:08.530Z,96240.66
2023-02-12T03:29:36.649Z,96236.81
2023-02-12T03:32:23.651Z,96233.41
2023-02-12T03:34:55.108Z,96238.25
2023-02-12T03:37:30.358Z,96223.63
2023-02-12T03:40:06.987Z,96235.69
2023-02-12T03:42:39.920Z,96222.19
2023-02-12T03:45:15.527Z,96245.22
2023-02-12T03:47:49.682Z,96223.63
2023-02-12T03:50:20.538Z,96235.97
2023-02-12T03:52:50.877Z,96223.63
2023-02-12T03:55:18.842Z,96242.56
2023-02-12T03:57:51.520Z,96245.19
2023-02-12T04:00:23.214Z,96231.16
2023-02-12T04:02:53.160Z,96210.59
2023-02-12T04:05:22.997Z,96231.94
2023-02-12T04:07:52.470Z,96231.22
2023-02-12T04:10:28.610Z,96235.38
2023-02-12T04:13:08.268Z,96236.19
2023-02-12T04:15:52.317Z,96231.16
2023-02-12T04:18:28.559Z,96244.94
2023-02-12T04:21:06.302Z,96248.63
2023-02-12T04:23:46.382Z,96262.72
2023-02-12T04:26:24.221Z,96254.44
2023-02-12T04:29:06.230Z,96252.84
2023-02-12T04:31:40.737Z,96242.88
2023-02-12T04:34:14.095Z,96207.06
2023-02-12T04:36:50.359Z,96263.94
2023-02-12T04:39:24.672Z,96266.84
2023-02-12T04:41:53.299Z,96269.22
2023-02-12T04:44:26.276Z,96259.91
2023-02-12T04:46:54.553Z,96255.88
2023-02-12T04:49:24.049Z,96230.19
2023-02-12T04:51:52.669Z,96258.16
2023-02-12T04:54:22.958Z,96272.94
2023-02-12T04:56:51.490Z,96269.72
2023-02-12T04:59:19.491Z,96274.53
2023-02-12T05:01:47.599Z,96271.88
2023-02-12T05:04:17.181Z,96268.69
2023-02-12T05:06:47.128Z,96268.13
2023-02-12T05:09:17.146Z,96256.41
2023-02-12T05:11:45.551Z,96263.28
2023-02-12T05:14:13.673Z,96271.72
2023-02-12T05:16:41.551Z,96270.50
2023-02-12T05:19:09.869Z,96268.25
2023-02-12T05:21:38.194Z,96278.75
2023-02-12T05:24:07.865Z,96279.59
2023-02-12T05:26:36.154Z,96278.63
2023-02-12T05:29:04.589Z,96287.16
2023-02-12T05:31:32.639Z,96274.50
2023-02-12T05:34:00.554Z,96288.94
2023-02-12T05:36:29.327Z,96291.91
2023-02-12T05:38:59.930Z,96297.22
2023-02-12T05:41:29.540Z,96291.91
2023-02-12T05:43:57.650Z,96298.81
2023-02-12T05:46:25.534Z,96290.22
2023-02-12T05:48:53.693Z,96294.44
2023-02-12T05:51:23.856Z,96235.59
2023-02-12T05:53:53.408Z,96283.31
2023-02-12T05:56:23.414Z,96314.59
2023-02-12T05:58:55.808Z,96315.63
2023-02-12T06:01:25.863Z,96315.63
2023-02-12T06:03:53.777Z,96319.16
2023-02-12T06:06:21.765Z,96297.63
2023-02-12T06:08:50.234Z,96324.81
2023-02-12T06:11:19.472Z,96305.22
2023-02-12T06:13:47.688Z,96329.09
2023-02-12T06:16:22.636Z,96333.69
2023-02-12T06:18:50.981Z,96269.41
2023-02-12T06:21:20.573Z,96326.00
2023-02-12T06:23:48.969Z,96308.63
2023-02-12T06:26:17.128Z,96320.19
2023-02-12T06:28:45.576Z,96324.28
2023-02-12T06:31:22.764Z,96312.78
2023-02-12T06:33:51.886Z,96303.41
2023-02-12T06:36:20.114Z,96326.94
2023-02-12T06:38:48.682Z,96339.31
2023-02-12T06:41:17.055Z,96332.41
2023-02-12T06:43:45.566Z,96331.34
2023-02-12T06:46:14.719Z,96326.22
2023-02-12T06:48:44.364Z,96337.91
2023-02-12T06:51:15.073Z,96329.69
2023-02-12T06:53:43.757Z,96331.06
2023-02-12T06:56:15.031Z,96322.47
2023-02-12T06:58:44.749Z,96347.06
2023-02-12T07:01:15.171Z,96302.19
2023-02-12T07:03:46.010Z,96348.81
2023-02-12T07:06:13.901Z,96348.25
2023-02-12T07:08:41.975Z,96336.00
2023-02-12T07:11:10.734Z,96325.91
2023-02-12T07:13:38.738Z,96336.09
2023-02-12T07:16:08.068Z,96340.75
2023-02-12T07:18:36.991Z,96347.22
2023-02-12T07:21:08.027Z,96359.41
2023-02-12T07:23:37.053Z,96353.47
2023-02-12T07:26:07.121Z,96355.94
2023-02-12T07:28:35.935Z,96294.19
2023-02-12T07:31:08.801Z,96349.88
2023-02-12T07:33:37.319Z,96336.19
2023-02-12T07:36:10.633Z,96349.78
2023-02-12T07:38:40.011Z,96353.38
2023-02-12T07:41:10.852Z,96367.38
2023-02-12T07:43:39.203Z,96360.41
2023-02-12T07:46:09.212Z,96361.78
2023-02-12T07:48:37.230Z,96363.44
2023-02-12T07:51:08.856Z,96361.50
2023-02-12T07:53:37.069Z,96365.72
2023-02-12T07:56:10.232Z,96198.06
2023-02-12T07:58:38.652Z,96366.91
2023-02-12T08:01:21.698Z,96359.41
2023-02-12T08:03:51.379Z,96351.78
2023-02-12T08:06:23.109Z,96357.31
2023-02-12T08:08:52.610Z,96357.31
2023-02-12T08:11:20.576Z,96322.13
2023-02-12T08:13:48.982Z,96362.31
2023-02-12T08:16:19.009Z,96340.75
2023-02-12T08:18:47.221Z,96364.72
2023-02-12T08:21:16.468Z,96362.56
2023-02-12T08:23:46.360Z,96363.13
2023-02-12T08:26:15.626Z,96363.25
2023-02-12T08:28:46.072Z,96366.00
2023-02-12T08:31:17.293Z,96375.03
2023-02-12T08:33:46.727Z,96378.22
2023-02-12T08:36:16.684Z,96389.25
2023-02-12T08:38:47.156Z,96387.56
2023-02-12T08:41:19.235Z,96396.25
2023-02-12T08:43:49.339Z,96382.41
2023-02-12T08:46:19.170Z,96399.31
2023-02-12T08:48:47.339Z,96405.16
2023-02-12T08:51:17.491Z,96397.03
2023-02-12T08:53:48.363Z,96399.69
2023-02-12T08:56:19.268Z,96228.78
2023-02-12T08:58:48.030Z,96409.34
2023-02-12T09:01:18.627Z,96389.13
2023-02-12T09:03:47.416Z,96414.00
2023-02-12T09:06:16.950Z,96411.50
2023-02-12T09:08:49.584Z,96324.63
2023-02-12T09:11:20.037Z,96341.38
2023-02-12T09:13:48.797Z,96413.44
2023-02-12T09:16:19.089Z,96423.06
2023-02-12T09:18:46.960Z,96421.22
2023-02-12T09:21:17.417Z,96422.78
2023-02-12T09:23:47.039Z,96419.38
2023-02-12T09:26:17.498Z,96421.13
2023-02-12T09:28:45.670Z,96417.38
2023-02-12T09:31:15.742Z,96386.81
2023-02-12T09:33:44.318Z,96427.00
2023-02-12T09:36:15.640Z,96418.09
2023-02-12T09:38:44.611Z,96435.66
2023-02-12T09:41:52.976Z,96425.91
2023-02-12T09:44:27.242Z,96439.88
2023-02-12T09:47:00.933Z,96439.06
2023-02-12T09:49:50.819Z,96446.22
2023-02-12T09:52:22.455Z,96432.44
2023-02-12T09:54:51.410Z,96430.69
2023-02-12T09:57:26.354Z,96437.75
2023-02-12T09:59:58.245Z,96436.97
2023-02-12T10:02:27.371Z,96444.19
2023-02-12T10:05:01.739Z,96438.66
2023-02-12T10:07:49.322Z,96422.94
2023-02-12T10:10:26.985Z,96428.91
2023-02-12T10:13:05.299Z,96429.19
2023-02-12T10:15:41.180Z,96443.41
2023-02-12T10:18:25.506Z,96444.00
2023-02-12T10:21:05.148Z,96447.84
2023-02-12T10:23:50.171Z,96443.28
2023-02-12T10:26:27.007Z,96445.38
2023-02-12T10:29:01.669Z,96453.88
2023-02-12T10:31:36.044Z,96408.81
2023-02-12T10:34:16.815Z,96438.81
2023-02-12T10:36:47.089Z,96443.28
2023-02-12T10:39:23.398Z,96440.25
2023-02-12T10:41:58.320Z,96430.09
2023-02-12T10:44:28.389Z,96393.25
2023-02-12T10:46:56.624Z,96427.53
2023-02-12T10:49:25.069Z,96436.84
2023-02-12T10:52:06.415Z,96444.03
2023-02-12T10:54:40.331Z,96441.44
2023-02-12T10:57:17.048Z,96452.06
2023-02-12T10:59:48.331Z,96459.44
2023-02-12T11:02:23.234Z,96446.56
2023-02-12T11:04:51.897Z,96450.59
2023-02-12T11:07:20.932Z,96447.97
2023-02-12T11:09:52.581Z,96444.34
2023-02-12T11:12:27.202Z,96447.06
2023-02-12T11:15:01.637Z,96444.84
2023-02-12T11:17:35.079Z,96446.00
2023-02-12T11:20:20.217Z,96437.53
2023-02-12T11:22:53.916Z,96237.00
2023-02-12T11:25:23.196Z,96434.28
2023-02-12T11:28:03.501Z,96435.41
2023-02-12T11:30:33.881Z,96428.44
2023-02-12T11:33:19.006Z,96433.50
2023-02-12T11:35:55.227Z,96418.53
2023-02-12T11:38:29.013Z,96432.16
2023-02-12T11:41:00.988Z,96421.47
2023-02-12T11:43:32.070Z,96433.75
2023-02-12T11:46:02.202Z,96441.75
2023-02-12T11:48:34.767Z,96437.47
2023-02-12T11:51:05.868Z,96428.13
2023-02-12T11:53:36.022Z,96429.22
2023-02-12T11:56:06.216Z,96435.91
2023-02-12T11:58:34.455Z,96415.34
2023-02-12T12:01:09.691Z,96435.38
2023-02-12T12:03:44.411Z,96439.13
2023-02-12T12:06:22.968Z,96437.78
2023-02-12T12:08:58.599Z,96441.00
2023-02-12T12:11:30.786Z,96433.75
2023-02-12T12:14:03.864Z,96413.47
2023-02-12T12:16:56.095Z,96432.25
2023-02-12T12:19:51.553Z,96430.91
2023-02-12T12:22:29.247Z,96438.06
2023-02-12T12:25:06.467Z,96436.81
2023-02-12T12:27:59.584Z,96443.47
2023-02-12T12:30:39.917Z,96386.25
2023-02-12T12:33:17.476Z,96451.47
2023-02-12T12:35:55.893Z,96454.31
2023-02-12T12:38:37.376Z,96462.59
2023-02-12T12:41:17.161Z,96444.97
2023-02-12T12:43:57.157Z,96457.03
2023-02-12T12:46:36.089Z,96449.88
2023-02-12T12:49:23.037Z,96446.41
2023-02-12T12:52:26.647Z,96455.22
2023-02-12T12:55:18.781Z,96435.97
2023-02-12T12:58:01.125Z,96461.13
2023-02-12T13:00:42.041Z,96438.16
2023-02-12T13:03:42.695Z,96453.66
2023-02-12T13:06:35.596Z,96452.53
2023-02-12T13:09:25.902Z,96471.78
2023-02-12T13:12:05.819Z,96416.13
2023-02-12T13:14:45.452Z,96463.22
2023-02-12T13:17:27.018Z,96466.44
2023-02-12T13:20:06.807Z,96468.56
2023-02-12T13:22:42.478Z,96478.69
2023-02-12T13:25:23.355Z,96475.75
2023-02-12T13:27:52.907Z,96461.56
2023-02-12T13:30:24.690Z,96480.56
2023-02-12T13:33:10.840Z,96468.56
2023-02-12T13:35:44.768Z,96465.06
2023-02-12T13:38:20.211Z,96437.50
2023-02-12T13:40:49.832Z,96464.22
2023-02-12T13:43:34.375Z,96485.56
2023-02-12T13:46:10.063Z,96492.47
2023-02-12T13:48:51.456Z,96483.63
2023-02-12T13:51:27.258Z,96499.94
2023-02-12T13:54:14.825Z,96500.78
2023-02-12T13:56:45.260Z,96497.91
2023-02-12T13:59:40.866Z,96494.16
2023-02-12T14:02:28.677Z,96495.19
2023-02-12T14:04:59.963Z,96503.78
2023-02-12T14:07:43.721Z,96372.91
2023-02-12T14:10:23.692Z,96509.34
2023-02-12T14:12:52.518Z,96519.75
2023-02-12T14:15:32.376Z,96516.53
2023-02-12T14:18:28.871Z,96526.69
2023-02-12T14:21:35.451Z,96525.06
2023-02-12T14:24:36.898Z,96526.94
2023-02-12T14:27:08.039Z,96519.94
2023-02-12T14:29:37.143Z,96522.88
2023-02-12T14:32:45.705Z,96484.81
2023-02-12T14:35:33.069Z,96546.91
2023-02-12T14:38:01.895Z,96551.94
2023-02-12T14:40:47.978Z,96546.38
2023-02-12T14:43:30.875Z,96552.47
2023-02-12T14:46:00.697Z,96542.53
2023-02-12T14:48:48.829Z,96545.69
2023-02-12T14:51:22.720Z,96567.13
2023-02-12T14:53:54.704Z,96572.41
2023-02-12T14:56:23.666Z,96569.75
2023-02-12T14:58:57.027Z,96521.16
2023-02-12T15:01:31.946Z,96579.22
2023-02-12T15:04:03.972Z,96578.34
2023-02-12T15:06:40.746Z,96579.16
2023-02-12T15:09:12.960Z,96590.88
2023-02-12T15:11:46.355Z,96583.31
2023-02-12T15:14:20.150Z,96601.22
2023-02-12T15:16:59.869Z,96598.81
2023-02-12T15:19:40.702Z,96604.38
2023-02-12T15:22:41.585Z,96620.34
2023-02-12T15:25:16.703Z,96627.56
2023-02-12T15:27:45.680Z,96630.72
2023-02-12T15:30:25.925Z,96641.94
2023-02-12T15:32:56.723Z,96647.06
2023-02-12T15:35:28.537Z,96642.78
2023-02-12T15:38:00.166Z,96651.34
2023-02-12T15:40:28.447Z,96644.34
2023-02-12T15:42:58.892Z,96654.81
2023-02-12T15:45:29.709Z,96659.63
2023-02-12T15:48:19.039Z,96648.63
2023-02-12T15:50:51.027Z,96666.44
2023-02-12T15:53:19.502Z,96670.34
2023-02-12T15:55:49.618Z,96669.94
2023-02-12T15:58:24.382Z,96674.72
2023-02-12T16:00:55.039Z,96654.84
2023-02-12T16:03:25.388Z,96632.19
2023-02-12T16:05:56.814Z,96695.44
2023-02-12T16:08:26.235Z,96690.97
2023-02-12T16:10:56.909Z,96700.34
2023-02-12T16:13:31.362Z,96694.38
2023-02-12T16:16:15.617Z,96708.44
2023-02-12T16:18:44.843Z,96698.34
2023-02-12T16:21:16.098Z,96714.22
2023-02-12T16:23:44.508Z,96719.16
2023-02-12T16:26:19.523Z,96731.34
2023-02-12T16:28:49.405Z,96736.94
2023-02-12T16:31:19.211Z,96705.03
2023-02-12T16:33:49.702Z,96747.91
2023-02-12T16:36:31.046Z,96745.22
2023-02-12T16:39:01.507Z,96742.63
2023-02-12T16:41:31.814Z,96746.94
2023-02-12T16:44:29.402Z,96756.50
2023-02-12T16:47:01.572Z,96752.81
2023-02-12T16:49:29.487Z,96752.75
2023-02-12T16:52:32.426Z,96741.94
2023-02-12T16:55:00.399Z,96739.75
2023-02-12T16:57:28.342Z,96745.50
2023-02-12T16:59:56.427Z,96761.22
2023-02-12T17:02:25.856Z,96763.06
2023-02-12T17:04:56.502Z,96772.94
2023-02-12T17:07:29.126Z,96769.38
2023-02-12T17:09:57.069Z,96760.69
2023-02-12T17:12:25.471Z,96768.03
2023-02-12T17:14:54.843Z,96784.06
2023-02-12T17:17:23.066Z,96794.72
2023-02-12T17:19:53.308Z,96794.09
2023-02-12T17:22:24.378Z,96807.91
2023-02-12T17:24:53.489Z,96806.03
2023-02-12T17:27:21.999Z,96818.31
2023-02-12T17:29:52.973Z,96819.91
2023-02-12T17:32:20.930Z,96819.63
2023-02-12T17:34:49.444Z,96819.09
2023-02-12T17:37:19.103Z,96774.09
2023-02-12T17:39:47.258Z,96787.59
2023-02-12T17:42:15.290Z,96826.28
2023-02-12T17:44:43.219Z,96832.66
2023-02-12T17:47:11.289Z,96832.97
2023-02-12T17:49:40.390Z,96835.88
2023-02-12T17:52:08.209Z,96832.09
2023-02-12T17:54:38.071Z,96791.56
2023-02-12T17:57:06.013Z,96845.59
2023-02-12T17:59:34.154Z,96792.84
2023-02-12T18:02:02.759Z,96856.94
2023-02-12T18:04:34.131Z,96687.22
2023-02-12T18:07:05.053Z,96831.69
2023-02-12T18:09:34.545Z,96848.16
2023-02-12T18:12:04.184Z,96792.19
2023-02-12T18:14:33.644Z,96829.75
2023-02-12T18:17:01.729Z,96839.75
2023-02-12T18:19:30.590Z,96835.34
2023-02-12T18:21:58.645Z,96843.16
2023-02-12T18:24:27.870Z,96828.16
2023-02-12T18:26:57.454Z,96820.34
2023-02-12T18:29:27.077Z,96842.03
2023-02-12T18:31:55.820Z,96829.38
2023-02-12T18:34:24.166Z,96842.03
2023-02-12T18:36:52.472Z,96839.28
2023-02-12T18:39:20.610Z,96809.19
2023-02-12T18:41:48.828Z,96834.31
2023-02-12T18:44:17.144Z,96796.31
2023-02-12T18:46:50.137Z,96875.28
2023-02-12T18:49:18.039Z,96841.72
2023-02-12T18:51:46.012Z,96866.97
2023-02-12T18:54:14.859Z,96878.50
2023-02-12T18:56:46.728Z,96821.31
2023-02-12T18:59:16.679Z,96889.50
2023-02-12T19:01:46.446Z,96886.75
2023-02-12T19:04:17.191Z,96881.09
2023-02-12T19:06:47.462Z,96904.25
2023-02-12T19:09:17.289Z,96894.41
2023-02-12T19:11:46.748Z,96888.03
2023-02-12T19:14:17.163Z,96887.84
2023-02-12T19:16:45.721Z,96887.75
2023-02-12T19:19:16.971Z,96897.56
2023-02-12T19:21:44.943Z,96715.31
2023-02-12T19:24:14.614Z,96898.31
2023-02-12T19:26:44.547Z,96900.59
2023-02-12T19:29:13.149Z,96887.38
2023-02-12T19:31:45.513Z,96911.06
2023-02-12T19:34:18.113Z,96883.50
2023-02-12T19:36:46.854Z,96905.03
2023-02-12T19:39:22.233Z,96902.88
2023-02-12T19:41:50.857Z,96903.16
2023-02-12T19:44:20.379Z,96905.72
2023-02-12T19:46:50.877Z,96915.78
2023-02-12T19:49:24.250Z,96924.38
2023-02-12T19:51:53.475Z,96914.78
2023-02-12T19:54:24.835Z,96923.56
2023-02-12T19:56:55.406Z,96875.03
2023-02-12T19:59:25.275Z,96916.84
2023-02-12T20:01:53.940Z,96926.31
2023-02-12T20:04:25.476Z,96928.63
2023-02-12T20:06:53.885Z,96933.31
2023-02-12T20:09:23.239Z,96939.47
2023-02-12T20:11:51.821Z,96931.53
2023-02-12T20:14:23.025Z,96935.66
2023-02-12T20:16:52.137Z,96937.09
2023-02-12T20:19:22.330Z,96948.84
2023-02-12T20:21:55.325Z,96946.09
2023-02-12T20:24:24.421Z,96938.56
2023-02-12T20:26:52.649Z,96943.81
2023-02-12T20:29:21.011Z,96942.06
2023-02-12T20:31:49.361Z,96943.56
2023-02-12T20:34:19.639Z,96937.81
2023-02-12T20:36:48.391Z,96934.94
2023-02-12T20:39:20.845Z,96944.47
2023-02-12T20:41:49.489Z,96944.84
2023-02-12T20:44:21.774Z,96942.06
2023-02-12T20:46:55.634Z,96958.69
2023-02-12T20:49:25.251Z,96961.13
2023-02-12T20:51:53.330Z,96946.59
2023-02-12T20:54:23.982Z,96959.88
2023-02-12T20:56:52.050Z,96962.78
2023-02-12T20:59:20.454Z,96962.78
2023-02-12T21:01:49.224Z,96967.63
2023-02-12T21:04:18.939Z,96920.75
2023-02-12T21:06:48.353Z,96914.25
2023-02-12T21:09:16.918Z,96977.22
2023-02-12T21:11:46.428Z,96972.38
2023-02-12T21:14:24.146Z,96985.19
2023-02-12T21:16:53.794Z,96980.44
2023-02-12T21:19:21.993Z,96961.25
2023-02-12T21:21:49.955Z,96891.72
2023-02-12T21:24:20.450Z,96838.25
2023-02-12T21:26:50.433Z,96989.44
2023-02-12T21:29:19.304Z,96994.31
2023-02-12T21:31:48.819Z,97005.88
2023-02-12T21:34:18.772Z,96958.13
2023-02-12T21:36:48.006Z,96982.84
2023-02-12T21:39:24.316Z,97008.41
2023-02-12T21:41:55.385Z,96997.28
2023-02-12T21:44:25.244Z,97009.41
2023-02-12T21:46:53.371Z,96993.47
2023-02-12T21:49:26.574Z,97010.53
2023-02-12T21:51:56.817Z,97008.88
2023-02-12T21:54:25.592Z,97015.34
2023-02-12T21:56:54.968Z,97026.53
2023-02-12T21:59:24.773Z,96947.09
2023-02-12T22:01:55.474Z,97022.59
2023-02-12T22:04:23.502Z,96992.81
2023-02-12T22:06:52.785Z,97033.81
2023-02-12T22:09:22.733Z,97037.72
2023-02-12T22:11:52.326Z,97032.75
2023-02-12T22:14:22.859Z,97019.19
2023-02-12T22:16:51.521Z,97019.06
2023-02-12T22:19:19.462Z,97037.53
2023-02-12T22:21:47.386Z,97037.28
2023-02-12T22:24:17.169Z,97032.63
2023-02-12T22:26:45.874Z,97030.50
2023-02-12T22:29:15.435Z,96982.84
2023-02-12T22:31:46.515Z,97042.63
2023-02-12T22:34:16.741Z,96965.56
2023-02-12T22:36:45.853Z,97049.41
2023-02-12T22:39:14.376Z,97056.41
2023-02-12T22:41:43.134Z,97055.53
2023-02-12T22:44:12.574Z,96987.84
2023-02-12T22:46:41.029Z,97008.09
2023-02-12T22:49:10.384Z,97054.63
2023-02-12T22:51:39.638Z,97042.63
2023-02-12T22:54:08.679Z,97052.16
2023-02-12T22:56:36.525Z,97043.72
2023-02-12T22:59:05.024Z,97049.63
2023-02-12T23:01:34.267Z,97053.31
2023-02-12T23:04:03.414Z,97046.97
2023-02-12T23:06:32.877Z,97036.44
2023-02-12T23:09:03.057Z,97052.38
2023-02-12T23:11:32.645Z,97038.34
2023-02-12T23:14:01.065Z,97060.97
2023-02-12T23:16:29.559Z,97063.84
2023-02-12T23:18:58.363Z,97056.13
2023-02-12T23:21:27.110Z,97069.53
2023-02-12T23:23:57.043Z,97029.81
2023-02-12T23:26:24.879Z,97070.97
2023-02-12T23:28:52.807Z,97054.81
2023-02-12T23:31:21.064Z,97058.25
2023-02-12T23:33:49.223Z,97047.78
2023-02-12T23:36:17.086Z,97075.28
2023-02-12T23:38:44.941Z,97083.38
2023-02-12T23:41:14.289Z,97085.88
2023-02-12T23:43:42.160Z,97086.31
2023-02-12T23:46:10.270Z,97080.25
2023-02-12T23:48:38.226Z,97082.69
2023-02-12T23:51:06.188Z,97086.16
2023-02-12T23:53:34.105Z,97084.91
2023-02-12T23:56:02.034Z,97078.94
2023-02-12T23:58:31.260Z,97063.50
